Time;durP1;ratioP1;P1;durP2;ratioP2;P2;SDS_P1;SDS_P2;PMS_P1;PMS_P2;Temp;Humidity;BMP_temperature;BMP_pressure;BME280_temperature;BME280_humidity;BME280_pressure;Samples;Min_cycle;Max_cycle;Signal;HPM_P1;HPM_P2
2021/03/13 00:00:16;;;;;;;24.35;12.58;;;;;;;-3.43;95.31;100338.46;1783160;80;21259;-78
2021/03/13 00:03:23;;;;;;;28.35;13.60;;;;;;;-3.45;95.70;100344.35;1783101;80;21817;-78
2021/03/13 00:06:28;;;;;;;21.93;12.25;;;;;;;-3.45;96.06;100340.34;1783061;80;21246;-78
2021/03/13 00:09:34;;;;;;;23.12;12.68;;;;;;;-3.43;96.43;100342.47;1783129;80;21698;-78
2021/03/13 00:12:39;;;;;;;24.90;12.93;;;;;;;-3.43;96.71;100333.11;1783076;80;21837;-78
2021/03/13 00:15:45;;;;;;;21.68;11.93;;;;;;;-3.42;96.94;100331.30;1781567;80;21175;-78
2021/03/13 00:18:52;;;;;;;23.02;13.32;;;;;;;-3.42;97.17;100329.48;1783137;80;21785;-78
2021/03/13 00:21:58;;;;;;;27.65;14.23;;;;;;;-3.42;97.31;100336.16;1782915;80;21813;-78
2021/03/13 00:25:03;;;;;;;25.27;13.75;;;;;;;-3.41;97.45;100332.53;1782969;80;21183;-78
2021/03/13 00:28:08;;;;;;;28.05;13.15;;;;;;;-3.41;97.61;100333.88;1783086;80;21211;-78
2021/03/13 00:31:13;;;;;;;23.00;13.72;;;;;;;-3.40;97.73;100324.03;1783125;80;21286;-78
2021/03/13 00:34:19;;;;;;;21.05;11.38;;;;;;;-3.40;97.84;100318.20;1783057;80;21647;-78
2021/03/13 00:37:24;;;;;;;22.67;12.88;;;;;;;-3.39;97.86;100317.28;1783069;80;21729;-78
2021/03/13 00:40:31;;;;;;;20.62;12.05;;;;;;;-3.40;97.82;100309.33;1783173;80;21864;-78
2021/03/13 00:43:37;;;;;;;22.95;13.15;;;;;;;-3.38;97.89;100308.30;1783058;80;21298;-78
2021/03/13 00:46:43;;;;;;;21.93;13.18;;;;;;;-3.37;97.87;100301.14;1783021;80;21813;-78
2021/03/13 00:49:49;;;;;;;25.02;12.40;;;;;;;-3.37;97.82;100309.16;1783147;80;21270;-78
2021/03/13 00:52:55;;;;;;;22.60;12.80;;;;;;;-3.38;97.79;100300.28;1782124;80;21310;-78
2021/03/13 00:55:59;;;;;;;18.25;12.53;;;;;;;-3.38;97.71;100298.94;1783171;80;21318;-78
2021/03/13 00:59:05;;;;;;;21.17;10.68;;;;;;;-3.36;97.68;100290.34;1783115;80;21136;-78
2021/03/13 01:02:11;;;;;;;20.30;12.65;;;;;;;-3.35;97.58;100296.55;1782756;80;22111;-78
2021/03/13 01:05:17;;;;;;;24.10;12.88;;;;;;;-3.33;97.46;100284.44;1783085;80;21192;-78
2021/03/13 01:08:24;;;;;;;26.17;13.98;;;;;;;-3.32;97.40;100272.78;1783064;80;21876;-78
2021/03/13 01:11:33;;;;;;;;;;;;;;;-3.33;97.32;100276.42;1785525;80;22182;-77
2021/03/13 01:14:38;;;;;;;19.02;11.12;;;;;;;-3.36;97.14;100272.95;1783178;80;20750;-78
2021/03/13 01:17:43;;;;;;;28.87;14.47;;;;;;;-3.37;97.04;100274.39;1777277;81;21188;-78
2021/03/13 01:20:49;;;;;;;23.15;12.93;;;;;;;-3.35;96.96;100267.98;1777358;81;21250;-78
2021/03/13 01:23:56;;;;;;;26.75;13.80;;;;;;;-3.32;96.88;100283.00;1777296;81;21223;-78
2021/03/13 01:27:01;;;;;;;27.37;15.18;;;;;;;-3.29;96.73;100291.31;1777301;81;21299;-78
2021/03/13 01:30:07;;;;;;;26.80;13.95;;;;;;;-3.28;96.56;100281.02;1777310;81;21259;-78
2021/03/13 01:33:15;;;;;;;26.70;14.03;;;;;;;-3.27;96.42;100285.41;1777273;81;21282;-78
2021/03/13 01:36:23;;;;;;;23.32;12.53;;;;;;;-3.24;96.32;100287.92;1777398;81;21267;-78
2021/03/13 01:39:27;;;;;;;22.87;12.78;;;;;;;-3.21;96.20;100278.36;1777289;81;21211;-78
2021/03/13 01:42:35;;;;;;;25.05;15.00;;;;;;;-3.20;96.02;100281.41;1777210;81;21334;-78
2021/03/13 01:45:42;;;;;;;26.75;14.43;;;;;;;-3.21;95.77;100278.36;1777325;81;21283;-78
2021/03/13 01:48:57;;;;;;;26.00;14.45;;;;;;;-3.21;95.56;100285.05;1777279;81;21793;-78
2021/03/13 01:52:01;;;;;;;24.67;14.95;;;;;;;-3.22;95.33;100282.84;1777140;81;21330;-78
2021/03/13 01:55:14;;;;;;;22.55;14.03;;;;;;;-3.21;95.12;100293.08;1777163;81;21275;-78
2021/03/13 01:58:21;;;;;;;28.25;14.60;;;;;;;-3.19;94.99;100299.22;1777244;81;21291;-78
2021/03/13 02:01:28;;;;;;;23.55;14.43;;;;;;;-3.19;94.78;100304.56;1777253;81;21832;-78
2021/03/13 02:04:34;;;;;;;24.02;14.43;;;;;;;-3.19;94.67;100304.09;1777325;81;21255;-78
2021/03/13 02:07:49;;;;;;;22.70;13.88;;;;;;;-3.17;94.51;100302.65;1777253;81;21330;-78
2021/03/13 02:11:18;;;;;;;23.70;13.83;;;;;;;-3.14;94.37;100307.83;1776742;80;21151;-78
2021/03/13 02:15:12;;;;;;;27.52;13.28;;;;;;;-3.12;94.14;100304.09;1767509;81;21687;-78
2021/03/13 02:18:38;;;;;;;22.15;13.30;;;;;;;-3.09;93.85;100300.39;1777156;81;21295;-78
2021/03/13 02:21:49;;;;;;;28.50;13.98;;;;;;;-3.09;93.50;100312.44;1777306;81;21841;-78
2021/03/13 02:25:05;;;;;;;22.87;13.50;;;;;;;-3.10;93.28;100308.91;1748623;81;21864;-78
2021/03/13 02:28:34;;;;;;;24.05;12.73;;;;;;;-3.07;93.26;100308.33;1777276;81;21326;-78
2021/03/13 02:31:39;;;;;;;26.85;13.38;;;;;;;-3.02;93.14;100306.23;1771305;81;21382;-78
2021/03/13 02:34:47;;;;;;;23.12;13.78;;;;;;;-3.02;92.90;100312.93;1777281;81;21243;-79
2021/03/13 02:37:56;;;;;;;24.52;13.48;;;;;;;-2.99;92.87;100314.09;1777335;81;21843;-78
2021/03/13 02:41:01;;;;;;;25.12;12.33;;;;;;;-3.00;92.76;100320.41;1777023;81;21317;-78
2021/03/13 02:44:10;;;;;;;30.45;13.72;;;;;;;-3.01;92.76;100319.55;1777349;81;21255;-78
2021/03/13 02:47:20;;;;;;;22.77;12.75;;;;;;;-3.01;92.94;100314.64;1777335;81;21730;-78
2021/03/13 02:50:26;;;;;;;20.45;12.88;;;;;;;-3.00;93.12;100319.07;1777410;81;21254;-78
2021/03/13 02:53:33;;;;;;;27.52;13.68;;;;;;;-3.00;93.33;100320.41;1777263;81;21836;-78
2021/03/13 02:56:39;;;;;;;20.52;12.50;;;;;;;-3.03;93.40;100305.37;1777331;81;21290;-78
2021/03/13 02:59:44;;;;;;;21.50;13.55;;;;;;;-3.04;93.52;100303.66;1777274;81;21251;-78
2021/03/13 03:02:51;;;;;;;27.25;12.50;;;;;;;-3.03;93.62;100303.18;1776972;81;21337;-78
2021/03/13 03:06:03;;;;;;;22.98;13.03;;;;;;;-3.05;93.74;100307.30;1774779;81;21301;-78
2021/03/13 03:09:12;;;;;;;27.65;13.72;;;;;;;-3.05;93.83;100296.59;1755799;81;21148;-78
2021/03/13 03:12:12;;;;;;;23.57;13.50;;;;;;;-3.03;93.96;100301.36;1777332;81;21856;-78
2021/03/13 03:15:06;;;;;;;27.48;15.43;;;;;;;-3.02;94.14;100299.55;1777300;81;21298;-78
2021/03/13 03:18:19;;;;;;;29.57;15.13;;;;;;;-3.03;94.28;100300.03;1776550;80;21279;-78
2021/03/13 03:21:29;;;;;;;28.38;14.75;;;;;;;-3.03;94.41;100301.36;1777370;81;21259;-78
2021/03/13 03:24:36;;;;;;;21.42;12.60;;;;;;;-3.06;94.47;100305.55;1777381;81;21279;-79
2021/03/13 03:27:50;;;;;;;26.68;12.88;;;;;;;-3.09;94.64;100303.07;1777234;81;21187;-78
2021/03/13 03:31:00;;;;;;;25.88;13.45;;;;;;;-3.08;94.88;100308.80;1777458;81;21183;-78
2021/03/13 03:34:05;;;;;;;19.77;12.15;;;;;;;-3.07;95.17;100300.30;1777342;81;21757;-78
2021/03/13 03:37:14;;;;;;;22.30;12.35;;;;;;;-3.10;95.31;100294.19;1777360;81;21211;-78
2021/03/13 03:40:19;;;;;;;25.97;14.10;;;;;;;-3.12;95.38;100301.42;1777366;81;21178;-78
2021/03/13 03:43:35;;;;;;;26.70;13.25;;;;;;;-3.12;95.56;100310.79;1777403;81;21290;-79
2021/03/13 03:46:43;;;;;;;21.33;12.70;;;;;;;-3.08;95.72;100326.20;1777358;81;21286;-78
2021/03/13 03:49:49;;;;;;;24.90;12.15;;;;;;;-3.04;95.89;100320.20;1777340;81;21780;-79
2021/03/13 03:52:59;;;;;;;21.23;12.82;;;;;;;-3.00;95.91;100319.92;1777142;80;21172;-78
2021/03/13 03:56:06;;;;;;;29.12;13.75;;;;;;;-2.97;95.90;100314.38;1777126;81;21307;-78
2021/03/13 03:59:12;;;;;;;28.05;12.85;;;;;;;-2.94;95.83;100314.20;1777346;81;21267;-79
2021/03/13 04:02:18;;;;;;;24.70;12.90;;;;;;;-2.90;95.77;100314.41;1777365;81;21837;-78
2021/03/13 04:05:25;;;;;;;20.80;12.58;;;;;;;-2.88;95.61;100311.16;1777302;81;21817;-78
2021/03/13 04:08:32;;;;;;;25.60;12.70;;;;;;;-2.87;95.48;100311.56;1777323;81;21816;-79
2021/03/13 04:11:36;;;;;;;31.68;14.13;;;;;;;-2.85;95.33;100307.45;1773408;80;21290;-79
2021/03/13 04:14:43;;;;;;;24.00;13.15;;;;;;;-2.84;95.18;100302.00;1777440;81;21224;-78
2021/03/13 04:17:48;;;;;;;26.45;13.53;;;;;;;-2.79;95.08;100300.86;1777602;80;21223;-79
2021/03/13 04:20:55;;;;;;;19.75;13.18;;;;;;;-2.77;94.92;100294.95;1777279;81;21179;-79
2021/03/13 04:24:01;;;;;;;32.08;13.98;;;;;;;-2.76;94.75;100302.03;1777363;81;21275;-79
2021/03/13 04:27:07;;;;;;;30.65;13.70;;;;;;;-2.74;94.60;100298.77;1777272;81;21275;-79
2021/03/13 04:30:13;;;;;;;28.50;14.90;;;;;;;-2.73;94.35;100286.65;1777388;81;21689;-78
2021/03/13 04:33:20;;;;;;;24.32;14.35;;;;;;;-2.69;94.20;100280.61;1777269;81;21302;-79
2021/03/13 04:36:25;;;;;;;25.57;13.65;;;;;;;-2.66;94.06;100283.11;1777255;81;21128;-79
2021/03/13 04:39:31;;;;;;;23.12;14.33;;;;;;;-2.65;93.87;100274.97;1777387;81;21184;-78
2021/03/13 04:42:36;;;;;;;25.77;15.40;;;;;;;-2.64;93.70;100281.19;1777113;81;21587;-79
2021/03/13 04:45:41;;;;;;;28.83;15.65;;;;;;;-2.62;93.62;100287.33;1754779;81;21261;-78
2021/03/13 04:48:47;;;;;;;29.80;15.32;;;;;;;-2.59;93.56;100288.02;1777279;81;21256;-78
2021/03/13 04:51:53;;;;;;;27.60;14.73;;;;;;;-2.53;93.53;100298.82;1777398;81;21329;-79
2021/03/13 04:55:00;;;;;;;25.02;14.35;;;;;;;-2.47;93.54;100298.92;1775724;80;21260;-79
2021/03/13 04:58:04;;;;;;;27.42;13.83;;;;;;;-2.43;93.46;100303.14;1777105;81;21298;-78
2021/03/13 05:01:09;;;;;;;28.47;14.50;;;;;;;-2.40;93.39;100303.82;1777367;81;21761;-78
2021/03/13 05:04:15;;;;;;;29.90;15.63;;;;;;;-2.36;93.29;100305.33;1777320;81;21817;-79
2021/03/13 05:07:21;;;;;;;28.95;16.15;;;;;;;-2.34;93.18;100300.75;1777302;81;21298;-78
2021/03/13 05:10:26;;;;;;;25.27;15.53;;;;;;;-2.29;93.11;100314.34;1777362;81;21304;-78
2021/03/13 05:13:35;;;;;;;34.67;16.15;;;;;;;-2.27;93.01;100309.74;1777157;81;21200;-79
2021/03/13 05:16:41;;;;;;;27.75;15.32;;;;;;;-2.25;92.97;100310.53;1777274;81;21282;-79
2021/03/13 05:19:46;;;;;;;26.02;14.07;;;;;;;-2.20;92.96;100316.46;1779180;80;21322;-79
2021/03/13 05:22:58;;;;;;;26.48;13.83;;;;;;;-2.14;92.96;100320.09;1783050;80;21213;-79
2021/03/13 05:26:03;;;;;;;24.15;14.28;;;;;;;-2.08;92.96;100316.53;1783097;80;21255;-79
2021/03/13 05:28:56;;;;;;;31.37;15.75;;;;;;;-1.99;92.93;100320.47;1782831;80;21275;-79
2021/03/13 05:32:01;;;;;;;27.15;14.78;;;;;;;-1.96;92.75;100318.94;1783051;80;21290;-79
2021/03/13 05:35:06;;;;;;;29.98;17.15;;;;;;;-1.90;92.61;100335.97;1782992;80;21235;-79
2021/03/13 05:38:12;;;;;;;26.40;14.55;;;;;;;-1.88;92.34;100326.52;1783033;80;21845;-79
2021/03/13 05:41:18;;;;;;;33.50;16.15;;;;;;;-1.87;92.10;100335.79;1783139;80;21274;-79
2021/03/13 05:44:22;;;;;;;31.10;15.93;;;;;;;-1.86;91.89;100337.51;1782875;80;21791;-79
2021/03/13 05:47:28;;;;;;;29.23;16.35;;;;;;;-1.82;91.75;100330.14;1783114;80;21962;-79
2021/03/13 05:50:35;;;;;;;34.60;16.93;;;;;;;-1.78;91.63;100329.47;1783051;80;21670;-79
2021/03/13 05:53:41;;;;;;;27.22;15.75;;;;;;;-1.72;91.53;100335.78;1783066;80;21867;-79
2021/03/13 05:56:45;;;;;;;31.00;17.05;;;;;;;-1.67;91.37;100333.18;1780728;80;21274;-79
2021/03/13 05:59:51;;;;;;;37.50;16.95;;;;;;;-1.60;91.15;100334.98;1782707;80;21144;-79
2021/03/13 06:02:58;;;;;;;30.52;17.50;;;;;;;-1.56;90.91;100343.21;1783016;80;21286;-79
2021/03/13 06:06:04;;;;;;;34.63;16.57;;;;;;;-1.45;90.75;100341.20;1783074;80;21809;-79
2021/03/13 06:09:10;;;;;;;29.20;16.20;;;;;;;-1.39;90.35;100344.34;1783056;80;21247;-79
2021/03/13 06:12:17;;;;;;;24.80;15.78;;;;;;;-1.35;89.93;100353.92;1783049;80;21713;-79
2021/03/13 06:15:25;;;;;;;30.43;17.07;;;;;;;-1.34;89.58;100350.27;1783039;80;21701;-78
2021/03/13 06:18:30;;;;;;;33.98;18.27;;;;;;;-1.30;89.32;100347.77;1783163;80;21176;-79
2021/03/13 06:21:41;;;;;;;27.50;16.85;;;;;;;-1.27;89.05;100352.54;1781999;80;21290;-79
2021/03/13 06:24:47;;;;;;;38.65;15.90;;;;;;;-1.24;88.93;100349.67;1783099;80;21801;-78
2021/03/13 06:27:55;;;;;;;32.65;17.60;;;;;;;-1.22;88.75;100349.07;1782291;80;21191;-79
2021/03/13 06:31:02;;;;;;;30.10;15.72;;;;;;;-1.16;88.71;100358.09;1783205;80;21302;-79
2021/03/13 06:34:07;;;;;;;28.83;17.30;;;;;;;-1.10;88.71;100363.91;1781003;80;21179;-79
2021/03/13 06:37:34;;;;;;;35.15;17.05;;;;;;;-1.03;88.44;100360.35;1782709;80;21301;-79
2021/03/13 06:40:43;;;;;;;33.13;17.77;;;;;;;-1.02;88.23;100358.52;1783177;80;21717;-79
2021/03/13 06:43:49;;;;;;;38.45;16.77;;;;;;;-1.02;88.19;100358.04;1783169;80;21199;-78
2021/03/13 06:46:55;;;;;;;30.17;15.83;;;;;;;-0.95;88.19;100355.31;1782965;80;21219;-79
2021/03/13 06:50:19;;;;;;;33.48;16.85;;;;;;;-0.89;88.11;100362.98;1779392;80;21295;-79
2021/03/13 06:53:24;;;;;;;28.75;16.35;;;;;;;-0.83;88.04;100362.56;1759022;81;21662;-79
2021/03/13 06:56:28;;;;;;;31.77;17.17;;;;;;;-0.78;87.93;100364.45;1760979;81;21165;-79
2021/03/13 06:59:46;;;;;;;36.70;18.87;;;;;;;-0.71;87.69;100355.98;1754228;80;21299;-79
2021/03/13 07:02:48;;;;;;;37.88;16.93;;;;;;;-0.64;87.49;100355.95;1748707;82;21311;-79
2021/03/13 07:05:54;;;;;;;35.45;15.95;;;;;;;-0.56;87.25;100357.16;1749324;82;21272;-79
2021/03/13 07:09:00;;;;;;;34.15;18.82;;;;;;;-0.48;87.05;100364.68;1749288;82;21550;-78
2021/03/13 07:12:06;;;;;;;28.50;16.85;;;;;;;-0.40;86.88;100360.14;1749304;82;21212;-79
2021/03/13 07:15:32;;;;;;;30.17;16.75;;;;;;;-0.33;86.65;100360.97;1749242;82;21722;-79
2021/03/13 07:18:37;;;;;;;27.52;16.62;;;;;;;-0.27;86.38;100365.91;1747938;82;21318;-79
2021/03/13 07:21:47;;;;;;;32.28;17.87;;;;;;;-0.21;86.10;100373.17;1754509;80;21738;-79
2021/03/13 07:24:55;;;;;;;33.13;18.07;;;;;;;-0.19;85.79;100369.39;1764823;81;21762;-79
2021/03/13 07:28:08;;;;;;;28.42;16.77;;;;;;;-0.12;85.69;100365.33;1764695;81;21367;-79
2021/03/13 07:31:15;;;;;;;31.23;16.75;;;;;;;-0.02;85.53;100372.27;1764750;81;21295;-79
2021/03/13 07:34:27;;;;;;;34.98;17.30;;;;;;;0.05;85.24;100372.23;1764839;81;21276;-79
2021/03/13 07:37:32;;;;;;;36.25;15.08;;;;;;;0.07;85.08;100378.34;1764706;81;21181;-79
2021/03/13 07:40:38;;;;;;;30.82;16.20;;;;;;;0.14;85.15;100379.65;1764781;81;21336;-79
2021/03/13 07:43:46;;;;;;;26.33;15.28;;;;;;;0.23;84.99;100372.24;1764906;81;21284;-79
2021/03/13 07:46:52;;;;;;;29.70;15.10;;;;;;;0.36;84.77;100375.42;1764809;81;21300;-79
2021/03/13 07:49:58;;;;;;;27.73;15.78;;;;;;;0.45;84.62;100375.62;1763238;81;21200;-79
2021/03/13 07:53:04;;;;;;;26.73;15.13;;;;;;;0.60;84.44;100379.03;1764766;81;21341;-79
2021/03/13 07:56:10;;;;;;;30.77;14.83;;;;;;;0.74;84.13;100378.89;1766337;81;21881;-79
2021/03/13 07:59:19;;;;;;;26.90;14.87;;;;;;;0.87;83.74;100375.31;1749031;81;21514;-79
2021/03/13 08:02:42;;;;;;;27.42;16.02;;;;;;;0.97;83.31;100375.00;1768686;81;21755;-79
2021/03/13 08:05:58;;;;;;;28.65;14.95;;;;;;;1.05;82.89;100367.22;1763110;81;21252;-79
2021/03/13 08:09:03;;;;;;;30.08;14.35;;;;;;;1.16;82.53;100371.30;1767792;81;21248;-78
2021/03/13 08:12:08;;;;;;;26.07;12.33;;;;;;;1.24;81.94;100372.95;1734312;83;21181;-78
2021/03/13 08:15:39;;;;;;;19.82;12.45;;;;;;;1.36;81.91;100370.29;1734388;83;21256;-78
2021/03/13 08:18:57;;;;;;;25.15;12.43;;;;;;;1.47;81.59;100377.09;1719351;83;21865;-78
2021/03/13 08:22:23;;;;;;;26.02;14.10;;;;;;;1.60;81.37;100376.99;1734424;83;21861;-78
2021/03/13 08:25:35;;;;;;;23.15;12.75;;;;;;;1.63;80.85;100373.58;1734429;83;21280;-78
2021/03/13 08:29:01;;;;;;;25.15;12.88;;;;;;;1.61;80.53;100376.05;1734486;83;21338;-78
2021/03/13 08:32:06;;;;;;;24.45;13.13;;;;;;;1.65;80.71;100378.88;1734288;83;21331;-78
2021/03/13 08:35:16;;;;;;;23.67;13.95;;;;;;;1.74;80.65;100374.98;1734604;83;21809;-78
2021/03/13 08:38:23;;;;;;;20.37;12.05;;;;;;;1.73;80.33;100377.28;1755572;80;21252;-78
2021/03/13 08:41:53;;;;;;;24.92;12.63;;;;;;;1.67;80.19;100371.03;1785491;80;21157;-78
2021/03/13 08:45:01;;;;;;;16.73;11.45;;;;;;;1.63;80.40;100374.93;1785855;80;21137;-78
2021/03/13 08:48:06;;;;;;;24.12;12.15;;;;;;;1.63;80.72;100372.23;1772374;80;21291;-78
2021/03/13 08:51:24;;;;;;;23.87;11.63;;;;;;;1.68;80.92;100370.53;1785466;80;21204;-78
2021/03/13 08:54:51;;;;;;;24.35;12.13;;;;;;;1.69;80.89;100370.41;1785712;80;21685;-78
2021/03/13 08:57:56;;;;;;;23.65;13.13;;;;;;;1.58;80.98;100372.22;1785509;80;21857;-78
2021/03/13 09:01:02;;;;;;;30.88;12.40;;;;;;;1.44;81.66;100363.84;1785442;80;21189;-78
2021/03/13 09:04:06;;;;;;;26.52;12.07;;;;;;;1.34;82.16;100373.60;1785705;80;21272;-78
2021/03/13 09:07:16;;;;;;;16.35;10.32;;;;;;;1.23;82.71;100377.97;1785668;80;21326;-77
2021/03/13 09:10:22;;;;;;;21.77;11.78;;;;;;;1.12;83.36;100371.65;1785554;80;21197;-78
2021/03/13 09:13:27;;;;;;;24.25;13.03;;;;;;;1.06;84.00;100370.28;1785616;80;21766;-78
2021/03/13 09:16:33;;;;;;;21.27;11.90;;;;;;;1.05;84.53;100357.78;1784321;80;21152;-78
2021/03/13 09:19:39;;;;;;;22.30;12.60;;;;;;;1.12;84.95;100358.17;1785680;80;21327;-77
2021/03/13 09:22:47;;;;;;;21.55;12.18;;;;;;;1.27;85.17;100363.75;1785562;80;21193;-78
2021/03/13 09:25:53;;;;;;;28.83;12.65;;;;;;;1.48;85.22;100368.02;1785466;80;21129;-77
2021/03/13 09:28:58;;;;;;;19.67;11.30;;;;;;;1.67;85.05;100368.82;1785555;80;21200;-77
2021/03/13 09:32:06;;;;;;;23.45;11.40;;;;;;;1.84;84.72;100366.19;1785515;80;21620;-77
2021/03/13 09:35:12;;;;;;;24.55;10.70;;;;;;;1.92;84.17;100368.63;1785613;80;21194;-78
2021/03/13 09:38:20;;;;;;;25.72;11.80;;;;;;;2.02;83.88;100366.06;1785497;80;21295;-77
2021/03/13 09:41:24;;;;;;;35.50;12.70;;;;;;;2.13;83.47;100362.05;1785530;80;21276;-77
2021/03/13 09:44:50;;;;;;;21.37;12.20;;;;;;;2.28;83.00;100354.58;1785610;80;21280;-77
2021/03/13 09:48:03;;;;;;;21.82;10.88;;;;;;;2.42;82.73;100348.08;1785375;80;21141;-77
2021/03/13 09:51:14;;;;;;;23.25;11.65;;;;;;;2.66;82.59;100355.54;1785569;80;21616;-77
2021/03/13 09:54:22;;;;;;;24.87;12.73;;;;;;;2.83;81.86;100350.13;1785734;80;21264;-77
2021/03/13 09:57:27;;;;;;;24.30;11.20;;;;;;;2.90;81.19;100345.06;1772680;80;21299;-77
2021/03/13 10:00:40;;;;;;;21.75;10.75;;;;;;;2.93;80.92;100352.43;1785567;80;21189;-77
2021/03/13 10:03:45;;;;;;;20.62;10.13;;;;;;;2.99;80.96;100342.45;1785592;80;21268;-77
2021/03/13 10:06:52;;;;;;;26.10;12.10;;;;;;;3.12;80.88;100348.20;1785225;80;21306;-77
2021/03/13 10:10:03;;;;;;;20.45;11.48;;;;;;;3.15;80.66;100333.92;1757343;80;21315;-77
2021/03/13 10:13:14;;;;;;;21.42;11.78;;;;;;;3.18;80.40;100332.82;1747742;82;21330;-77
2021/03/13 10:16:18;;;;;;;;;;;;;;;3.21;80.27;100335.27;1751008;82;21263;-77
2021/03/13 10:19:46;;;;;;;21.62;12.93;;;;;;;3.29;80.11;100337.70;1747830;82;20258;-77
2021/03/13 10:22:52;;;;;;;22.20;11.05;;;;;;;3.30;80.13;100340.77;1747659;82;21232;-77
2021/03/13 10:26:12;;;;;;;21.25;10.65;;;;;;;3.41;80.29;100333.59;1736538;82;21310;-77
2021/03/13 10:29:17;;;;;;;23.00;11.22;;;;;;;3.47;80.14;100329.86;1734580;82;21276;-77
2021/03/13 10:32:27;;;;;;;26.23;12.20;;;;;;;3.56;80.07;100334.98;1734286;82;21275;-77
2021/03/13 10:35:33;;;;;;;19.35;10.58;;;;;;;3.58;80.02;100331.17;1718148;82;21813;-77
2021/03/13 10:38:41;;;;;;;18.42;10.05;;;;;;;3.68;80.13;100322.27;1734844;82;21829;-77
2021/03/13 10:41:45;;;;;;;27.02;10.72;;;;;;;3.79;79.98;100326.25;1736454;82;21884;-77
2021/03/13 10:44:51;;;;;;;17.32;9.63;;;;;;;3.91;80.01;100319.79;1718007;82;21156;-78
2021/03/13 10:47:56;;;;;;;24.23;10.68;;;;;;;4.09;80.18;100309.18;1734932;82;21287;-77
2021/03/13 10:51:02;;;;;;;20.50;9.48;;;;;;;4.31;80.04;100306.80;1734960;82;21271;-78
2021/03/13 10:54:09;;;;;;;26.00;10.63;;;;;;;4.44;79.87;100299.80;1734961;82;21741;-77
2021/03/13 10:57:16;;;;;;;21.25;9.65;;;;;;;4.58;79.63;100302.98;1734955;82;21168;-77
2021/03/13 11:00:22;;;;;;;23.52;10.30;;;;;;;4.71;79.54;100296.47;1735028;82;22112;-77
2021/03/13 11:03:28;;;;;;;17.67;8.50;;;;;;;4.79;79.14;100290.68;1734934;82;21267;-78
2021/03/13 11:06:41;;;;;;;25.05;9.33;;;;;;;4.88;79.01;100295.77;1735053;82;21259;-78
2021/03/13 11:09:46;;;;;;;16.00;8.45;;;;;;;5.02;78.86;100289.94;1735119;82;21870;-78
2021/03/13 11:12:50;;;;;;;16.67;9.53;;;;;;;5.20;78.71;100288.73;1736491;82;21168;-78
2021/03/13 11:15:56;;;;;;;20.23;9.90;;;;;;;5.39;78.58;100285.17;1735036;82;21280;-78
2021/03/13 11:19:04;;;;;;;27.27;10.35;;;;;;;5.45;77.92;100280.52;1735001;82;21224;-78
2021/03/13 11:22:10;;;;;;;21.07;9.35;;;;;;;5.52;77.69;100285.73;1735000;82;21734;-77
2021/03/13 11:25:16;;;;;;;22.65;9.78;;;;;;;5.51;77.53;100285.89;1735404;82;21279;-77
2021/03/13 11:28:22;;;;;;;18.82;9.93;;;;;;;5.64;77.76;100283.70;1744998;82;21220;-77
2021/03/13 11:31:28;;;;;;;21.95;9.18;;;;;;;5.72;77.40;100280.27;1744994;82;21916;-78
2021/03/13 11:34:34;;;;;;;19.30;9.25;;;;;;;5.79;77.10;100278.20;1744878;82;21845;-77
2021/03/13 11:37:40;;;;;;;17.17;9.23;;;;;;;5.86;76.87;100277.09;1744981;82;21191;-78
2021/03/13 11:40:45;;;;;;;20.55;8.55;;;;;;;5.94;76.69;100277.77;1745015;82;21855;-78
2021/03/13 11:43:52;;;;;;;22.45;9.70;;;;;;;5.96;76.35;100275.23;1745023;82;21752;-78
2021/03/13 11:46:58;;;;;;;19.40;9.60;;;;;;;6.00;76.43;100275.80;1744961;82;21226;-78
2021/03/13 11:50:02;;;;;;;17.17;8.70;;;;;;;6.08;76.33;100275.42;1744949;82;21889;-78
2021/03/13 11:53:08;;;;;;;16.62;8.75;;;;;;;6.22;76.23;100279.52;1744985;82;21196;-78
2021/03/13 11:56:14;;;;;;;18.35;9.35;;;;;;;6.32;75.79;100283.05;1745017;82;21266;-77
2021/03/13 11:59:19;;;;;;;23.52;9.25;;;;;;;6.38;75.82;100279.72;1744977;82;21814;-77
2021/03/13 12:02:25;;;;;;;22.75;9.78;;;;;;;6.46;75.75;100274.05;1744482;82;21204;-77
2021/03/13 12:05:29;;;;;;;16.67;8.28;;;;;;;6.48;75.68;100276.11;1744832;82;21176;-77
2021/03/13 12:08:35;;;;;;;20.08;9.08;;;;;;;6.52;75.54;100274.80;1745043;82;21310;-78
2021/03/13 12:11:42;;;;;;;20.82;8.85;;;;;;;6.55;75.62;100282.16;1744976;82;21849;-77
2021/03/13 12:14:47;;;;;;;14.90;7.95;;;;;;;6.62;75.66;100281.89;1745016;82;21148;-77
2021/03/13 12:17:54;;;;;;;18.48;9.40;;;;;;;6.63;75.33;100283.63;1745023;82;21195;-77
2021/03/13 12:21:01;;;;;;;22.50;10.23;;;;;;;6.63;75.33;100286.34;1745111;82;21295;-77
2021/03/13 12:24:06;;;;;;;18.42;8.75;;;;;;;6.61;75.37;100290.20;1745059;82;21152;-78
2021/03/13 12:27:12;;;;;;;18.70;9.63;;;;;;;6.64;75.52;100291.27;1741104;82;21307;-77
2021/03/13 12:30:19;;;;;;;16.15;8.93;;;;;;;6.65;75.34;100291.11;1735073;82;21191;-77
2021/03/13 12:33:25;;;;;;;24.07;11.28;;;;;;;6.61;75.50;100293.77;1735007;82;21315;-77
2021/03/13 12:36:31;;;;;;;23.27;9.88;;;;;;;6.56;75.60;100295.23;1734937;82;21217;-77
2021/03/13 12:39:37;;;;;;;18.67;9.50;;;;;;;6.54;75.90;100293.16;1735076;82;21801;-77
2021/03/13 12:42:43;;;;;;;25.72;11.95;;;;;;;6.55;76.02;100303.05;1734293;82;21292;-77
2021/03/13 12:45:48;;;;;;;21.77;12.28;;;;;;;6.53;76.01;100295.02;1735024;82;21880;-77
2021/03/13 12:48:56;;;;;;;16.73;8.90;;;;;;;6.51;75.84;100296.20;1735052;82;21267;-77
2021/03/13 12:52:02;;;;;;;13.72;8.23;;;;;;;6.39;75.73;100298.23;1734749;82;21196;-77
2021/03/13 12:55:08;;;;;;;27.07;11.95;;;;;;;6.23;75.86;100300.75;1734948;82;21196;-77
2021/03/13 12:58:14;;;;;;;17.80;9.03;;;;;;;6.08;76.18;100306.66;1734943;82;21323;-77
2021/03/13 13:01:20;;;;;;;17.60;8.28;;;;;;;6.00;76.54;100294.81;1735058;82;21758;-77
2021/03/13 13:04:26;;;;;;;17.82;9.23;;;;;;;5.93;76.88;100297.27;1735037;82;21793;-77
2021/03/13 13:07:32;;;;;;;19.25;8.28;;;;;;;5.86;76.79;100292.88;1735022;82;21197;-77
2021/03/13 13:10:38;;;;;;;23.57;8.83;;;;;;;5.75;76.69;100296.28;1735055;82;21157;-77
2021/03/13 13:13:44;;;;;;;18.73;8.98;;;;;;;5.59;76.93;100298.20;1734904;82;21307;-77
2021/03/13 13:16:49;;;;;;;16.10;7.80;;;;;;;5.43;77.36;100289.31;1734893;82;21323;-78
2021/03/13 13:19:54;;;;;;;14.63;8.15;;;;;;;5.30;77.73;100286.88;1747943;81;21296;-77
2021/03/13 13:22:58;;;;;;;17.35;10.45;;;;;;;5.23;78.12;100285.75;1770741;81;21157;-77
2021/03/13 13:26:04;;;;;;;17.67;9.55;;;;;;;5.15;78.35;100284.24;1739632;82;21747;-77
2021/03/13 13:29:11;;;;;;;19.23;10.75;;;;;;;5.11;78.47;100281.45;1734097;82;21303;-77
2021/03/13 13:32:17;;;;;;;21.77;10.72;;;;;;;5.09;78.54;100283.47;1761172;80;21295;-78
2021/03/13 13:35:23;;;;;;;32.20;11.73;;;;;;;5.05;78.65;100279.32;1764726;81;21291;-77
2021/03/13 13:38:29;;;;;;;20.88;12.10;;;;;;;5.03;78.74;100286.22;1764725;81;21196;-78
2021/03/13 13:41:34;;;;;;;24.32;13.32;;;;;;;5.01;78.78;100286.02;1775384;80;21133;-78
2021/03/13 13:44:40;;;;;;;27.00;13.40;;;;;;;4.98;78.72;100280.36;1785487;80;21742;-78
2021/03/13 13:47:46;;;;;;;23.50;12.15;;;;;;;4.93;78.67;100277.72;1785442;80;21202;-78
2021/03/13 13:50:51;;;;;;;27.60;12.63;;;;;;;4.92;78.61;100271.45;1781186;80;21204;-78
2021/03/13 13:53:57;;;;;;;21.70;11.90;;;;;;;4.90;78.47;100270.75;1773014;80;21300;-78
2021/03/13 13:57:03;;;;;;;23.27;12.73;;;;;;;4.86;78.21;100264.75;1768976;80;21184;-78
2021/03/13 14:00:08;;;;;;;28.05;14.38;;;;;;;4.84;78.13;100268.58;1777595;80;21242;-78
2021/03/13 14:03:14;;;;;;;28.47;14.00;;;;;;;4.81;78.00;100268.88;1756403;80;21295;-78
2021/03/13 14:06:20;;;;;;;21.75;12.85;;;;;;;4.77;77.75;100266.94;1736710;80;21309;-78
2021/03/13 14:09:26;;;;;;;27.15;13.65;;;;;;;4.77;77.59;100271.51;1780395;80;21236;-78
2021/03/13 14:12:33;;;;;;;21.68;12.75;;;;;;;4.72;77.60;100267.01;1783654;80;21253;-78
2021/03/13 14:15:38;;;;;;;30.43;13.35;;;;;;;4.63;77.77;100267.84;1764602;80;21181;-78
2021/03/13 14:18:42;;;;;;;25.80;13.50;;;;;;;4.58;77.90;100260.14;1767563;80;21259;-78